createdAt,value
2022-12-27T00:02:18.829Z,5.40
2022-12-27T00:04:45.776Z,5.20
2022-12-27T00:07:12.816Z,5.10
2022-12-27T00:09:39.629Z,5.00
2022-12-27T00:12:06.757Z,4.80
2022-12-27T00:14:33.651Z,4.70
2022-12-27T00:17:00.433Z,4.50
2022-12-27T00:19:27.232Z,4.40
2022-12-27T00:21:54.111Z,4.30
2022-12-27T00:24:20.918Z,4.20
2022-12-27T00:26:47.844Z,4.10
2022-12-27T00:29:14.968Z,4.00
2022-12-27T00:31:42.531Z,3.90
2022-12-27T00:34:11.879Z,3.80
2022-12-27T00:36:39.293Z,3.70
2022-12-27T00:39:06.393Z,3.70
2022-12-27T00:41:33.655Z,3.60
2022-12-27T00:44:00.463Z,3.60
2022-12-27T00:46:27.522Z,3.50
2022-12-27T00:48:55.405Z,3.50
2022-12-27T00:51:24.218Z,3.40
2022-12-27T00:53:52.919Z,3.30
2022-12-27T00:56:22.968Z,3.30
2022-12-27T00:58:54.190Z,3.20
2022-12-27T01:01:22.820Z,3.20
2022-12-27T01:03:50.204Z,3.10
2022-12-27T01:06:19.382Z,3.10
2022-12-27T01:08:47.349Z,3.10
2022-12-27T01:11:15.610Z,3.00
2022-12-27T01:13:43.059Z,3.00
2022-12-27T01:16:11.512Z,3.00
2022-12-27T01:18:38.457Z,2.90
2022-12-27T01:21:07.615Z,2.90
2022-12-27T01:23:35.042Z,2.80
2022-12-27T01:26:04.221Z,2.80
2022-12-27T01:28:31.313Z,2.70
2022-12-27T01:30:58.424Z,2.70
2022-12-27T01:33:25.255Z,2.60
2022-12-27T01:35:52.018Z,2.60
2022-12-27T01:38:18.747Z,2.60
2022-12-27T01:40:45.482Z,2.50
2022-12-27T01:43:18.846Z,2.50
2022-12-27T01:45:46.974Z,2.40
2022-12-27T01:48:19.324Z,2.40
2022-12-27T01:50:55.060Z,2.40
2022-12-27T01:53:24.683Z,2.30
2022-12-27T01:56:00.737Z,2.30
2022-12-27T01:58:49.094Z,2.30
2022-12-27T02:01:26.947Z,2.20
2022-12-27T02:03:58.886Z,2.20
2022-12-27T02:06:26.960Z,2.20
2022-12-27T02:08:59.873Z,2.20
2022-12-27T02:11:49.361Z,2.20
2022-12-27T02:14:23.397Z,2.10
2022-12-27T02:16:54.194Z,2.10
2022-12-27T02:19:27.008Z,2.00
2022-12-27T02:22:52.524Z,2.00
2022-12-27T02:25:34.121Z,2.00
2022-12-27T02:28:16.603Z,2.00
2022-12-27T02:30:44.953Z,2.00
2022-12-27T02:33:20.785Z,1.90
2022-12-27T02:35:55.270Z,1.80
2022-12-27T02:38:28.328Z,1.80
2022-12-27T02:41:15.840Z,1.80
2022-12-27T02:44:01.160Z,1.70
2022-12-27T02:46:49.231Z,1.70
2022-12-27T02:49:48.227Z,1.70
2022-12-27T02:52:54.132Z,1.60
2022-12-27T02:55:35.936Z,1.60
2022-12-27T02:58:25.734Z,1.60
2022-12-27T03:01:26.273Z,1.50
2022-12-27T03:04:26.489Z,1.50
2022-12-27T03:07:25.713Z,1.50
2022-12-27T03:10:17.111Z,1.40
2022-12-27T03:13:02.536Z,1.40
2022-12-27T03:15:56.821Z,1.40
2022-12-27T03:18:37.810Z,1.30
2022-12-27T03:21:39.862Z,1.20
2022-12-27T03:24:29.063Z,1.10
2022-12-27T03:26:58.056Z,1.10
2022-12-27T03:29:44.061Z,1.20
2022-12-27T03:32:30.541Z,1.30
2022-12-27T03:35:17.545Z,1.40
2022-12-27T03:38:02.463Z,1.50
2022-12-27T03:41:12.057Z,1.60
2022-12-27T03:43:40.071Z,1.60
2022-12-27T03:46:33.835Z,1.60
2022-12-27T03:49:18.176Z,1.60
2022-12-27T03:52:06.638Z,1.60
2022-12-27T03:54:38.851Z,1.60
2022-12-27T03:57:12.414Z,1.60
2022-12-27T03:59:40.219Z,1.60
2022-12-27T04:02:08.194Z,1.50
2022-12-27T04:04:35.758Z,1.50
2022-12-27T04:07:03.570Z,1.50
2022-12-27T04:09:48.697Z,1.40
2022-12-27T04:12:34.301Z,1.40
2022-12-27T04:15:20.211Z,1.40
2022-12-27T04:18:05.770Z,1.50
2022-12-27T04:20:51.397Z,1.50
2022-12-27T04:23:37.197Z,1.70
2022-12-27T04:26:22.766Z,1.70
2022-12-27T04:29:07.874Z,1.70
2022-12-27T04:31:53.743Z,1.70
2022-12-27T04:34:39.256Z,1.60
2022-12-27T04:37:06.053Z,1.50
2022-12-27T04:39:32.897Z,1.50
2022-12-27T04:42:18.501Z,1.50
2022-12-27T04:45:04.080Z,1.50
2022-12-27T04:47:50.249Z,1.50
2022-12-27T04:50:45.403Z,1.50
2022-12-27T04:53:34.366Z,1.50
2022-12-27T04:56:01.671Z,1.50
2022-12-27T04:58:29.106Z,1.50
2022-12-27T05:01:17.639Z,1.50
2022-12-27T05:03:46.855Z,1.50
2022-12-27T05:06:13.881Z,1.50
2022-12-27T05:09:00.260Z,1.60
2022-12-27T05:11:45.823Z,1.70
2022-12-27T05:14:15.099Z,1.80
2022-12-27T05:16:43.667Z,1.90
2022-12-27T05:19:16.230Z,2.00
2022-12-27T05:22:04.823Z,2.10
2022-12-27T05:24:51.171Z,2.20
2022-12-27T05:27:18.527Z,2.30
2022-12-27T05:29:46.556Z,2.30
2022-12-27T05:32:14.000Z,2.40
2022-12-27T05:34:41.478Z,2.30
2022-12-27T05:37:08.720Z,2.30
2022-12-27T05:39:35.809Z,2.40
2022-12-27T05:42:03.197Z,2.40
2022-12-27T05:44:30.114Z,2.30
2022-12-27T05:46:57.169Z,2.30
2022-12-27T05:49:24.060Z,2.30
2022-12-27T05:51:50.927Z,2.40
2022-12-27T05:54:17.669Z,2.50
2022-12-27T05:56:44.451Z,2.60
2022-12-27T05:59:11.455Z,2.60
2022-12-27T06:01:39.731Z,2.70
2022-12-27T06:04:07.718Z,2.80
2022-12-27T06:06:34.781Z,2.80
2022-12-27T06:09:01.696Z,2.70
2022-12-27T06:11:28.473Z,2.70
2022-12-27T06:13:55.381Z,2.60
2022-12-27T06:16:22.656Z,2.60
2022-12-27T06:18:50.009Z,2.60
2022-12-27T06:21:19.638Z,2.60
2022-12-27T06:23:47.362Z,2.60
2022-12-27T06:26:20.167Z,2.70
2022-12-27T06:28:49.364Z,2.70
2022-12-27T06:31:17.380Z,2.80
2022-12-27T06:33:44.299Z,2.90
2022-12-27T06:36:13.563Z,3.00
2022-12-27T06:38:40.858Z,3.10
2022-12-27T06:41:10.246Z,3.20
2022-12-27T06:43:37.127Z,3.20
2022-12-27T06:46:16.810Z,3.20
2022-12-27T06:48:46.331Z,3.30
2022-12-27T06:51:14.653Z,3.30
2022-12-27T06:53:41.709Z,3.40
2022-12-27T06:56:22.431Z,3.40
2022-12-27T06:58:50.814Z,3.40
2022-12-27T07:01:23.294Z,3.40
2022-12-27T07:03:55.800Z,3.50
2022-12-27T07:06:24.665Z,3.50
2022-12-27T07:08:52.351Z,3.50
2022-12-27T07:11:20.306Z,3.50
2022-12-27T07:13:49.928Z,3.60
2022-12-27T07:16:24.331Z,3.50
2022-12-27T07:18:51.871Z,3.50
2022-12-27T07:21:21.876Z,3.50
2022-12-27T07:23:49.226Z,3.50
2022-12-27T07:26:21.333Z,3.50
2022-12-27T07:28:48.426Z,3.50
2022-12-27T07:31:17.508Z,3.50
2022-12-27T07:33:45.057Z,3.50
2022-12-27T07:36:33.934Z,3.50
2022-12-27T07:39:01.016Z,3.50
2022-12-27T07:41:27.742Z,3.50
2022-12-27T07:43:54.616Z,3.60
2022-12-27T07:46:23.796Z,3.60
2022-12-27T07:48:50.643Z,3.60
2022-12-27T07:51:19.199Z,3.60
2022-12-27T07:53:48.510Z,3.60
2022-12-27T07:56:25.171Z,3.70
2022-12-27T07:58:54.214Z,3.70
2022-12-27T08:01:22.266Z,3.70
2022-12-27T08:03:49.503Z,3.70
2022-12-27T08:06:30.243Z,3.70
2022-12-27T08:09:03.678Z,3.70
2022-12-27T08:11:30.993Z,3.70
2022-12-27T08:13:58.042Z,3.70
2022-12-27T08:16:26.335Z,3.80
2022-12-27T08:18:53.800Z,3.80
2022-12-27T08:21:20.680Z,3.80
2022-12-27T08:23:47.481Z,3.90
2022-12-27T08:26:14.621Z,3.80
2022-12-27T08:28:41.487Z,3.90
2022-12-27T08:31:10.211Z,3.90
2022-12-27T08:33:37.876Z,3.90
2022-12-27T08:38:56.179Z,3.90
2022-12-27T08:41:24.153Z,3.90
2022-12-27T08:43:51.302Z,4.00
2022-12-27T08:46:20.862Z,4.00
2022-12-27T08:48:48.796Z,4.10
2022-12-27T08:51:24.759Z,4.10
2022-12-27T08:53:57.324Z,4.10
2022-12-27T08:56:25.121Z,4.10
2022-12-27T08:58:51.943Z,4.10
2022-12-27T09:01:19.210Z,4.20
2022-12-27T09:03:46.043Z,4.20
2022-12-27T09:06:18.860Z,4.30
2022-12-27T09:08:47.381Z,4.30
2022-12-27T09:11:20.416Z,4.30
2022-12-27T09:13:47.503Z,4.40
2022-12-27T09:16:24.527Z,4.50
2022-12-27T09:18:53.340Z,4.60
2022-12-27T09:21:22.318Z,4.70
2022-12-27T09:23:49.731Z,4.80
2022-12-27T09:26:19.930Z,5.00
2022-12-27T09:28:51.339Z,5.10
2022-12-27T09:31:19.751Z,5.20
2022-12-27T09:33:46.931Z,5.30
2022-12-27T09:36:19.511Z,5.40
2022-12-27T09:38:47.620Z,5.40
2022-12-27T09:42:33.713Z,5.50
2022-12-27T09:44:25.163Z,5.60
2022-12-27T09:47:01.354Z,5.60
2022-12-27T09:49:38.333Z,5.60
2022-12-27T09:52:11.071Z,5.60
2022-12-27T09:54:49.639Z,5.60
2022-12-27T09:57:41.548Z,5.70
2022-12-27T10:00:34.219Z,5.70
2022-12-27T10:03:06.564Z,5.70
2022-12-27T10:05:37.140Z,5.70
2022-12-27T10:08:41.358Z,5.70
2022-12-27T10:11:36.208Z,5.80
2022-12-27T10:14:41.269Z,5.80
2022-12-27T10:17:34.139Z,5.80
2022-12-27T10:20:42.629Z,5.90
2022-12-27T10:23:20.329Z,5.90
2022-12-27T10:25:49.290Z,5.90
2022-12-27T10:28:34.075Z,6.00
2022-12-27T10:31:03.721Z,6.00
2022-12-27T10:33:33.500Z,6.00
2022-12-27T10:36:06.555Z,6.10
2022-12-27T10:38:35.015Z,6.20
2022-12-27T10:41:31.470Z,6.30
2022-12-27T10:43:59.589Z,6.40
2022-12-27T10:46:33.145Z,6.70
2022-12-27T10:51:47.492Z,6.80
2022-12-27T10:54:26.506Z,6.80
2022-12-27T10:56:54.160Z,6.90
2022-12-27T10:59:28.899Z,7.00
2022-12-27T11:02:01.791Z,7.00
2022-12-27T11:04:30.791Z,7.10
2022-12-27T11:06:59.967Z,7.20
2022-12-27T11:09:27.131Z,7.30
2022-12-27T11:12:24.804Z,7.30
2022-12-27T11:14:57.351Z,7.30
2022-12-27T11:17:38.354Z,7.20
2022-12-27T11:20:26.775Z,7.20
2022-12-27T11:22:56.276Z,7.20
2022-12-27T11:25:25.316Z,7.30
2022-12-27T11:27:57.309Z,7.40
2022-12-27T11:30:37.337Z,7.50
2022-12-27T11:33:24.132Z,7.80
2022-12-27T11:35:55.668Z,8.00
2022-12-27T11:38:29.546Z,8.00
2022-12-27T11:41:28.403Z,7.90
2022-12-27T11:44:03.542Z,7.90
2022-12-27T11:46:58.616Z,7.70
2022-12-27T11:49:36.256Z,7.60
2022-12-27T11:52:27.606Z,7.40
2022-12-27T11:55:31.438Z,7.30
2022-12-27T11:58:16.740Z,7.10
2022-12-27T12:00:46.225Z,7.10
2022-12-27T12:03:34.967Z,7.10
2022-12-27T12:06:34.489Z,7.20
2022-12-27T12:09:13.666Z,7.10
2022-12-27T12:12:02.254Z,6.90
2022-12-27T12:15:04.272Z,6.80
2022-12-27T12:18:03.267Z,6.60
2022-12-27T12:20:39.027Z,6.40
2022-12-27T12:23:36.708Z,6.20
2022-12-27T12:26:23.723Z,6.20
2022-12-27T12:29:09.054Z,6.20
2022-12-27T12:31:58.018Z,6.10
2022-12-27T12:34:43.294Z,6.20
2022-12-27T12:38:05.683Z,6.40
2022-12-27T12:41:01.593Z,6.60
2022-12-27T12:43:56.841Z,6.70
2022-12-27T12:46:23.581Z,6.80
2022-12-27T12:48:59.417Z,6.90
2022-12-27T12:52:10.420Z,6.90
2022-12-27T12:54:50.091Z,6.90
2022-12-27T12:57:44.077Z,6.90
2022-12-27T13:00:56.778Z,6.80
2022-12-27T13:03:29.488Z,6.70
2022-12-27T13:06:15.316Z,6.70
2022-12-27T13:09:10.891Z,6.70
2022-12-27T13:12:02.196Z,6.70
2022-12-27T13:14:28.941Z,6.70
2022-12-27T13:17:00.710Z,6.60
2022-12-27T13:19:46.189Z,6.70
2022-12-27T13:22:48.770Z,6.70
2022-12-27T13:25:33.331Z,6.70
2022-12-27T13:28:22.151Z,6.60
2022-12-27T13:31:27.443Z,6.60
2022-12-27T13:34:10.939Z,6.60
2022-12-27T13:36:43.840Z,6.60
2022-12-27T13:39:22.538Z,6.60
2022-12-27T13:42:24.326Z,6.50
2022-12-27T13:45:25.369Z,6.40
2022-12-27T13:48:11.040Z,6.30
2022-12-27T13:50:55.801Z,6.20
2022-12-27T13:53:56.992Z,6.10
2022-12-27T13:56:55.133Z,6.10
2022-12-27T13:59:48.536Z,6.00
2022-12-27T14:02:37.752Z,5.90
2022-12-27T14:05:48.755Z,5.80
2022-12-27T14:08:27.144Z,5.80
2022-12-27T14:11:00.905Z,5.80
2022-12-27T14:13:42.219Z,5.80
2022-12-27T14:16:39.097Z,5.80
2022-12-27T14:19:20.879Z,5.80
2022-12-27T14:22:16.939Z,5.80
2022-12-27T14:25:27.823Z,5.70
2022-12-27T14:28:41.690Z,5.70
2022-12-27T14:31:56.463Z,5.60
2022-12-27T14:34:47.505Z,5.50
2022-12-27T14:37:42.341Z,5.40
2022-12-27T14:40:34.380Z,5.40
2022-12-27T14:43:44.679Z,5.40
2022-12-27T14:46:47.468Z,5.40
2022-12-27T14:49:32.866Z,5.60
2022-12-27T14:52:18.578Z,5.60
2022-12-27T14:55:10.820Z,5.70
2022-12-27T14:57:42.435Z,5.90
2022-12-27T15:00:16.969Z,5.90
2022-12-27T15:02:43.778Z,5.90
2022-12-27T15:05:45.403Z,5.90
2022-12-27T15:08:31.615Z,5.90
2022-12-27T15:11:22.965Z,5.90
2022-12-27T15:14:06.304Z,5.90
2022-12-27T15:16:55.915Z,5.80
2022-12-27T15:19:28.843Z,5.80
2022-12-27T15:22:26.397Z,5.80
2022-12-27T15:25:14.899Z,5.80
2022-12-27T15:28:06.505Z,5.80
2022-12-27T15:30:39.635Z,5.90
2022-12-27T15:33:15.524Z,5.80
2022-12-27T15:35:57.489Z,5.90
2022-12-27T15:38:52.997Z,5.80
2022-12-27T15:41:36.976Z,5.80
2022-12-27T15:44:12.675Z,5.80
2022-12-27T15:46:56.043Z,5.70
2022-12-27T15:49:49.067Z,5.60
2022-12-27T15:52:40.381Z,5.50
2022-12-27T15:55:25.573Z,5.50
2022-12-27T15:58:07.770Z,5.30
2022-12-27T16:00:34.978Z,5.30
2022-12-27T16:03:04.064Z,5.20
2022-12-27T16:05:43.094Z,5.10
2022-12-27T16:08:09.806Z,5.00
2022-12-27T16:10:42.450Z,4.90
2022-12-27T16:13:09.197Z,4.80
2022-12-27T16:15:47.683Z,4.70
2022-12-27T16:18:20.688Z,4.70
2022-12-27T16:21:26.547Z,4.60
2022-12-27T16:23:58.477Z,4.50
2022-12-27T16:26:34.360Z,4.40
2022-12-27T16:29:13.525Z,4.40
2022-12-27T16:31:46.032Z,4.30
2022-12-27T16:34:30.186Z,4.30
2022-12-27T16:37:01.850Z,4.20
2022-12-27T16:39:50.430Z,4.20
2022-12-27T16:42:24.339Z,4.20
2022-12-27T16:45:21.928Z,4.10
2022-12-27T16:48:19.133Z,4.10
2022-12-27T16:50:56.502Z,4.00
2022-12-27T16:53:38.600Z,4.00
2022-12-27T16:56:05.293Z,4.00
2022-12-27T16:58:36.713Z,4.00
2022-12-27T17:01:36.158Z,4.00
2022-12-27T17:04:04.726Z,3.90
2022-12-27T17:06:33.651Z,3.90
2022-12-27T17:09:10.424Z,3.90
2022-12-27T17:12:02.999Z,3.90
2022-12-27T17:14:35.747Z,3.90
2022-12-27T17:17:29.955Z,4.00
2022-12-27T17:20:07.547Z,4.20
2022-12-27T17:22:38.314Z,4.30
2022-12-27T17:25:05.611Z,4.40
2022-12-27T17:27:58.611Z,4.50
2022-12-27T17:30:39.704Z,4.60
2022-12-27T17:33:17.084Z,4.60
2022-12-27T17:35:52.971Z,4.70
2022-12-27T17:38:32.908Z,4.70
2022-12-27T17:42:06.614Z,4.70
2022-12-27T17:44:48.309Z,4.70
2022-12-27T17:47:33.744Z,4.70
2022-12-27T17:50:12.249Z,4.70
2022-12-27T17:52:57.862Z,4.70
2022-12-27T17:55:46.373Z,4.70
2022-12-27T17:58:18.596Z,4.70
2022-12-27T18:01:02.092Z,4.70
2022-12-27T18:03:39.508Z,4.70
2022-12-27T18:06:06.609Z,4.80
2022-12-27T18:08:34.237Z,4.80
2022-12-27T18:11:03.035Z,4.80
2022-12-27T18:13:37.617Z,4.80
2022-12-27T18:16:32.872Z,4.80
2022-12-27T18:19:01.754Z,4.80
2022-12-27T18:21:30.320Z,4.70
2022-12-27T18:23:57.655Z,4.60
2022-12-27T18:26:38.569Z,4.50
2022-12-27T18:29:10.321Z,4.40
2022-12-27T18:31:52.583Z,4.30
2022-12-27T18:34:32.262Z,4.20
2022-12-27T18:37:07.389Z,4.10
2022-12-27T18:39:38.829Z,4.00
2022-12-27T18:42:26.158Z,4.00
2022-12-27T18:44:57.677Z,3.90
2022-12-27T18:47:29.498Z,3.90
2022-12-27T18:49:59.691Z,3.80
2022-12-27T18:52:35.066Z,3.70
2022-12-27T18:55:20.892Z,3.70
2022-12-27T18:57:48.492Z,3.60
2022-12-27T19:00:25.622Z,3.60
2022-12-27T19:02:54.476Z,3.50
2022-12-27T19:05:21.614Z,3.50
2022-12-27T19:07:51.630Z,3.50
2022-12-27T19:10:21.929Z,3.50
2022-12-27T19:12:49.301Z,3.50
2022-12-27T19:15:22.256Z,3.40
2022-12-27T19:17:52.369Z,3.40
2022-12-27T19:20:29.337Z,3.40
2022-12-27T19:22:59.378Z,3.40
2022-12-27T19:25:31.381Z,3.30
2022-12-27T19:28:01.202Z,3.30
2022-12-27T19:30:44.454Z,3.30
2022-12-27T19:33:21.061Z,3.40
2022-12-27T19:35:47.840Z,3.50
2022-12-27T19:38:26.726Z,3.50
2022-12-27T19:41:02.875Z,3.60
2022-12-27T19:43:37.871Z,3.70
2022-12-27T19:46:04.885Z,3.70
2022-12-27T19:48:31.702Z,3.80
2022-12-27T19:50:59.163Z,3.90
2022-12-27T19:53:33.455Z,4.00
2022-12-27T19:56:01.955Z,4.00
2022-12-27T19:58:30.630Z,4.00
2022-12-27T20:00:58.201Z,4.10
2022-12-27T20:03:25.250Z,4.10
2022-12-27T20:06:14.815Z,4.10
2022-12-27T20:08:45.389Z,4.10
2022-12-27T20:11:16.444Z,4.00
2022-12-27T20:13:43.271Z,4.00
2022-12-27T20:16:14.761Z,3.90
2022-12-27T20:18:42.675Z,3.90
2022-12-27T20:21:17.817Z,3.90
2022-12-27T20:23:45.422Z,4.00
2022-12-27T20:26:13.347Z,4.00
2022-12-27T20:28:40.112Z,3.90
2022-12-27T20:31:08.681Z,3.70
2022-12-27T20:33:35.805Z,3.60
2022-12-27T20:36:03.575Z,3.40
2022-12-27T20:38:30.594Z,3.40
2022-12-27T20:40:57.537Z,3.30
2022-12-27T20:43:24.478Z,3.20
2022-12-27T20:45:51.271Z,3.20
2022-12-27T20:48:18.095Z,3.30
2022-12-27T20:50:44.829Z,3.40
2022-12-27T20:53:11.641Z,3.40
2022-12-27T20:55:38.399Z,3.50
2022-12-27T20:58:05.134Z,3.50
2022-12-27T21:00:37.860Z,3.60
2022-12-27T21:03:04.879Z,3.70
2022-12-27T21:05:31.744Z,3.80
2022-12-27T21:07:58.488Z,3.80
2022-12-27T21:10:25.240Z,3.90
2022-12-27T21:12:53.040Z,3.90
2022-12-27T21:15:19.986Z,4.00
2022-12-27T21:17:47.183Z,4.10
2022-12-27T21:20:14.020Z,4.20
2022-12-27T21:22:40.814Z,4.20
2022-12-27T21:25:07.903Z,4.20
2022-12-27T21:27:34.784Z,4.30
2022-12-27T21:30:01.656Z,4.40
2022-12-27T21:32:28.467Z,4.40
2022-12-27T21:34:55.254Z,4.50
2022-12-27T21:37:22.175Z,4.60
2022-12-27T21:39:48.890Z,4.60
2022-12-27T21:42:16.153Z,4.70
2022-12-27T21:44:42.922Z,4.70
2022-12-27T21:47:09.975Z,4.70
2022-12-27T21:49:40.262Z,4.80
2022-12-27T21:52:07.275Z,4.80
2022-12-27T21:54:35.174Z,4.80
2022-12-27T21:57:03.156Z,4.80
2022-12-27T21:59:30.039Z,4.70
2022-12-27T22:01:56.926Z,4.50
2022-12-27T22:04:23.808Z,4.40
2022-12-27T22:06:51.030Z,4.30
2022-12-27T22:09:30.583Z,4.10
2022-12-27T22:12:10.799Z,4.00
2022-12-27T22:14:44.397Z,3.80
2022-12-27T22:17:13.910Z,3.70
2022-12-27T22:19:40.622Z,3.50
2022-12-27T22:22:12.155Z,3.40
2022-12-27T22:24:39.039Z,3.40
2022-12-27T22:27:19.647Z,3.30
2022-12-27T22:29:49.250Z,3.20
2022-12-27T22:32:16.063Z,3.00
2022-12-27T22:34:43.079Z,2.90
2022-12-27T22:37:09.859Z,2.80
2022-12-27T22:39:36.637Z,2.70
2022-12-27T22:42:03.415Z,2.60
2022-12-27T22:44:30.160Z,2.50
2022-12-27T22:47:25.088Z,2.40
2022-12-27T22:49:46.102Z,2.40
2022-12-27T22:52:13.020Z,2.30
2022-12-27T22:55:04.581Z,2.20
2022-12-27T22:57:26.654Z,2.20
2022-12-27T22:59:53.450Z,2.10
2022-12-27T23:02:20.325Z,2.00
2022-12-27T23:04:48.346Z,2.00
2022-12-27T23:07:20.017Z,1.90
2022-12-27T23:09:46.901Z,1.80
2022-12-27T23:12:16.991Z,1.80
2022-12-27T23:14:43.752Z,1.70
2022-12-27T23:17:10.533Z,1.70
2022-12-27T23:19:37.302Z,1.70
2022-12-27T23:22:04.150Z,1.70
2022-12-27T23:24:31.115Z,1.60
2022-12-27T23:26:57.908Z,1.60
2022-12-27T23:29:25.162Z,1.50
2022-12-27T23:31:55.201Z,1.50
2022-12-27T23:34:28.796Z,1.50
2022-12-27T23:37:01.334Z,1.50
2022-12-27T23:39:28.555Z,1.40
2022-12-27T23:41:55.795Z,1.40
2022-12-27T23:44:34.366Z,1.40
2022-12-27T23:47:04.419Z,1.30
2022-12-27T23:49:31.893Z,1.30
2022-12-27T23:51:58.859Z,1.30
2022-12-27T23:54:25.692Z,1.30
2022-12-27T23:56:52.415Z,1.30
2022-12-27T23:59:19.317Z,1.30
